sensor_id;sensor_type;location;lat;lon;timestamp;P1;durP1;ratioP1;P2;durP2;ratioP2
11346;SDS011;5728;42.722;23.258;2022-07-23T00:01:18;17.17;;;12.05;;
11346;SDS011;5728;42.722;23.258;2022-07-23T00:03:46;15.48;;;6.65;;
11346;SDS011;5728;42.722;23.258;2022-07-23T00:06:13;10.45;;;6.38;;
11346;SDS011;5728;42.722;23.258;2022-07-23T00:08:40;15.90;;;7.18;;
11346;SDS011;5728;42.722;23.258;2022-07-23T00:11:07;13.25;;;5.90;;
11346;SDS011;5728;42.722;23.258;2022-07-23T00:13:34;8.90;;;6.07;;
11346;SDS011;5728;42.722;23.258;2022-07-23T00:16:01;12.98;;;5.22;;
11346;SDS011;5728;42.722;23.258;2022-07-23T00:18:27;12.55;;;5.30;;
11346;SDS011;5728;42.722;23.258;2022-07-23T00:20:56;12.88;;;6.07;;
11346;SDS011;5728;42.722;23.258;2022-07-23T00:23:22;9.10;;;6.22;;
11346;SDS011;5728;42.722;23.258;2022-07-23T00:25:50;12.13;;;5.20;;
11346;SDS011;5728;42.722;23.258;2022-07-23T00:28:17;8.05;;;4.90;;
11346;SDS011;5728;42.722;23.258;2022-07-23T00:30:44;7.07;;;5.03;;
11346;SDS011;5728;42.722;23.258;2022-07-23T00:33:11;9.02;;;5.18;;
11346;SDS011;5728;42.722;23.258;2022-07-23T00:35:39;6.70;;;5.22;;
11346;SDS011;5728;42.722;23.258;2022-07-23T00:38:09;8.57;;;4.53;;
11346;SDS011;5728;42.722;23.258;2022-07-23T00:40:36;7.43;;;5.00;;
11346;SDS011;5728;42.722;23.258;2022-07-23T00:43:04;9.50;;;5.10;;
11346;SDS011;5728;42.722;23.258;2022-07-23T00:45:31;8.35;;;5.15;;
11346;SDS011;5728;42.722;23.258;2022-07-23T00:47:58;9.20;;;5.07;;
11346;SDS011;5728;42.722;23.258;2022-07-23T00:50:25;6.45;;;4.95;;
11346;SDS011;5728;42.722;23.258;2022-07-23T00:52:52;7.03;;;5.18;;
11346;SDS011;5728;42.722;23.258;2022-07-23T00:55:21;5.78;;;5.05;;
11346;SDS011;5728;42.722;23.258;2022-07-23T00:57:48;5.82;;;5.20;;
11346;SDS011;5728;42.722;23.258;2022-07-23T01:00:17;9.30;;;4.70;;
11346;SDS011;5728;42.722;23.258;2022-07-23T01:02:44;7.25;;;4.80;;
11346;SDS011;5728;42.722;23.258;2022-07-23T01:05:11;8.63;;;5.93;;
11346;SDS011;5728;42.722;23.258;2022-07-23T01:07:38;6.47;;;5.38;;
11346;SDS011;5728;42.722;23.258;2022-07-23T01:10:05;8.77;;;5.07;;
11346;SDS011;5728;42.722;23.258;2022-07-23T01:12:55;6.05;;;4.60;;
11346;SDS011;5728;42.722;23.258;2022-07-23T01:15:21;5.38;;;4.40;;
11346;SDS011;5728;42.722;23.258;2022-07-23T01:17:48;9.38;;;5.55;;
11346;SDS011;5728;42.722;23.258;2022-07-23T01:20:15;7.85;;;5.53;;
11346;SDS011;5728;42.722;23.258;2022-07-23T01:22:43;7.63;;;5.28;;
11346;SDS011;5728;42.722;23.258;2022-07-23T01:25:10;10.63;;;5.18;;
11346;SDS011;5728;42.722;23.258;2022-07-23T01:27:37;13.40;;;5.82;;
11346;SDS011;5728;42.722;23.258;2022-07-23T01:30:04;6.55;;;4.88;;
11346;SDS011;5728;42.722;23.258;2022-07-23T01:32:32;7.80;;;4.60;;
11346;SDS011;5728;42.722;23.258;2022-07-23T01:34:59;6.57;;;5.10;;
11346;SDS011;5728;42.722;23.258;2022-07-23T01:37:25;11.43;;;6.00;;
11346;SDS011;5728;42.722;23.258;2022-07-23T01:39:53;12.45;;;5.32;;
11346;SDS011;5728;42.722;23.258;2022-07-23T01:42:20;9.45;;;6.07;;
11346;SDS011;5728;42.722;23.258;2022-07-23T01:44:48;8.13;;;5.43;;
11346;SDS011;5728;42.722;23.258;2022-07-23T01:47:15;11.50;;;5.55;;
11346;SDS011;5728;42.722;23.258;2022-07-23T01:49:42;6.75;;;5.50;;
11346;SDS011;5728;42.722;23.258;2022-07-23T01:52:09;9.18;;;5.97;;
11346;SDS011;5728;42.722;23.258;2022-07-23T01:54:36;11.13;;;5.30;;
11346;SDS011;5728;42.722;23.258;2022-07-23T01:57:06;11.80;;;6.03;;
11346;SDS011;5728;42.722;23.258;2022-07-23T01:59:33;10.32;;;6.10;;
11346;SDS011;5728;42.722;23.258;2022-07-23T02:02:00;12.45;;;6.65;;
11346;SDS011;5728;42.722;23.258;2022-07-23T02:04:28;11.02;;;6.85;;
11346;SDS011;5728;42.722;23.258;2022-07-23T02:06:55;8.65;;;5.80;;
11346;SDS011;5728;42.722;23.258;2022-07-23T02:09:22;15.30;;;6.22;;
11346;SDS011;5728;42.722;23.258;2022-07-23T02:11:49;7.40;;;6.13;;
11346;SDS011;5728;42.722;23.258;2022-07-23T02:14:17;8.18;;;6.03;;
11346;SDS011;5728;42.722;23.258;2022-07-23T02:16:43;9.82;;;5.57;;
11346;SDS011;5728;42.722;23.258;2022-07-23T02:19:10;13.20;;;5.80;;
11346;SDS011;5728;42.722;23.258;2022-07-23T02:21:37;9.85;;;6.00;;
11346;SDS011;5728;42.722;23.258;2022-07-23T02:24:04;8.50;;;5.65;;
11346;SDS011;5728;42.722;23.258;2022-07-23T02:26:31;11.48;;;5.93;;
11346;SDS011;5728;42.722;23.258;2022-07-23T02:28:59;6.95;;;5.88;;
11346;SDS011;5728;42.722;23.258;2022-07-23T02:31:28;10.23;;;5.35;;
11346;SDS011;5728;42.722;23.258;2022-07-23T02:33:55;16.00;;;5.53;;
11346;SDS011;5728;42.722;23.258;2022-07-23T02:36:22;6.95;;;6.00;;
11346;SDS011;5728;42.722;23.258;2022-07-23T02:38:48;12.70;;;5.15;;
11346;SDS011;5728;42.722;23.258;2022-07-23T02:41:15;12.40;;;6.43;;
11346;SDS011;5728;42.722;23.258;2022-07-23T02:43:42;13.98;;;6.13;;
11346;SDS011;5728;42.722;23.258;2022-07-23T02:46:09;9.93;;;6.07;;
11346;SDS011;5728;42.722;23.258;2022-07-23T02:48:37;9.50;;;6.55;;
11346;SDS011;5728;42.722;23.258;2022-07-23T02:51:04;8.20;;;5.50;;
11346;SDS011;5728;42.722;23.258;2022-07-23T02:53:31;9.82;;;5.95;;
11346;SDS011;5728;42.722;23.258;2022-07-23T02:55:57;13.50;;;6.55;;
11346;SDS011;5728;42.722;23.258;2022-07-23T02:58:24;8.75;;;6.32;;
11346;SDS011;5728;42.722;23.258;2022-07-23T03:00:51;9.98;;;6.05;;
11346;SDS011;5728;42.722;23.258;2022-07-23T03:03:18;11.35;;;5.85;;
11346;SDS011;5728;42.722;23.258;2022-07-23T03:05:46;9.48;;;6.03;;
11346;SDS011;5728;42.722;23.258;2022-07-23T03:08:13;10.55;;;7.03;;
11346;SDS011;5728;42.722;23.258;2022-07-23T03:10:40;7.25;;;5.80;;
11346;SDS011;5728;42.722;23.258;2022-07-23T03:13:07;5.72;;;5.10;;
11346;SDS011;5728;42.722;23.258;2022-07-23T03:15:34;8.93;;;5.65;;
11346;SDS011;5728;42.722;23.258;2022-07-23T03:18:00;15.40;;;5.70;;
11346;SDS011;5728;42.722;23.258;2022-07-23T03:20:27;9.32;;;6.32;;
11346;SDS011;5728;42.722;23.258;2022-07-23T03:22:55;10.73;;;6.40;;
11346;SDS011;5728;42.722;23.258;2022-07-23T03:25:22;8.57;;;6.82;;
11346;SDS011;5728;42.722;23.258;2022-07-23T03:27:49;10.27;;;6.70;;
11346;SDS011;5728;42.722;23.258;2022-07-23T03:30:15;13.35;;;7.40;;
11346;SDS011;5728;42.722;23.258;2022-07-23T03:32:42;9.45;;;7.72;;
11346;SDS011;5728;42.722;23.258;2022-07-23T03:35:09;9.85;;;6.88;;
11346;SDS011;5728;42.722;23.258;2022-07-23T03:37:36;13.52;;;8.00;;
11346;SDS011;5728;42.722;23.258;2022-07-23T03:40:05;11.75;;;7.95;;
11346;SDS011;5728;42.722;23.258;2022-07-23T03:42:33;13.05;;;7.13;;
11346;SDS011;5728;42.722;23.258;2022-07-23T03:45:02;11.90;;;6.93;;
11346;SDS011;5728;42.722;23.258;2022-07-23T03:47:29;12.45;;;7.78;;
11346;SDS011;5728;42.722;23.258;2022-07-23T03:49:56;11.18;;;6.80;;
11346;SDS011;5728;42.722;23.258;2022-07-23T03:52:22;7.95;;;6.70;;
11346;SDS011;5728;42.722;23.258;2022-07-23T03:54:49;11.07;;;6.88;;
11346;SDS011;5728;42.722;23.258;2022-07-23T03:57:17;13.90;;;7.38;;
11346;SDS011;5728;42.722;23.258;2022-07-23T03:59:44;9.23;;;6.53;;
11346;SDS011;5728;42.722;23.258;2022-07-23T04:02:11;12.27;;;6.38;;
11346;SDS011;5728;42.722;23.258;2022-07-23T04:04:37;13.23;;;6.53;;
11346;SDS011;5728;42.722;23.258;2022-07-23T04:07:04;11.60;;;6.45;;
11346;SDS011;5728;42.722;23.258;2022-07-23T04:09:32;13.40;;;6.50;;
11346;SDS011;5728;42.722;23.258;2022-07-23T04:11:59;15.80;;;6.93;;
11346;SDS011;5728;42.722;23.258;2022-07-23T04:14:27;13.57;;;6.25;;
11346;SDS011;5728;42.722;23.258;2022-07-23T04:16:54;9.85;;;5.82;;
11346;SDS011;5728;42.722;23.258;2022-07-23T04:19:21;13.30;;;6.30;;
11346;SDS011;5728;42.722;23.258;2022-07-23T04:21:47;9.82;;;6.32;;
11346;SDS011;5728;42.722;23.258;2022-07-23T04:24:14;8.48;;;6.30;;
11346;SDS011;5728;42.722;23.258;2022-07-23T04:26:41;9.52;;;6.13;;
11346;SDS011;5728;42.722;23.258;2022-07-23T04:29:07;11.38;;;6.03;;
11346;SDS011;5728;42.722;23.258;2022-07-23T04:31:36;8.10;;;5.90;;
11346;SDS011;5728;42.722;23.258;2022-07-23T04:34:03;11.60;;;5.90;;
11346;SDS011;5728;42.722;23.258;2022-07-23T04:36:30;16.40;;;5.72;;
11346;SDS011;5728;42.722;23.258;2022-07-23T04:38:56;16.50;;;5.88;;
11346;SDS011;5728;42.722;23.258;2022-07-23T04:41:23;9.43;;;5.50;;
11346;SDS011;5728;42.722;23.258;2022-07-23T04:43:50;7.03;;;5.75;;
11346;SDS011;5728;42.722;23.258;2022-07-23T04:46:17;7.57;;;6.15;;
11346;SDS011;5728;42.722;23.258;2022-07-23T04:48:46;10.13;;;6.15;;
11346;SDS011;5728;42.722;23.258;2022-07-23T04:51:13;13.10;;;5.45;;
11346;SDS011;5728;42.722;23.258;2022-07-23T04:53:40;12.93;;;6.22;;
11346;SDS011;5728;42.722;23.258;2022-07-23T04:56:07;8.18;;;5.25;;
11346;SDS011;5728;42.722;23.258;2022-07-23T04:58:34;11.60;;;6.53;;
11346;SDS011;5728;42.722;23.258;2022-07-23T05:01:01;12.07;;;6.10;;
11346;SDS011;5728;42.722;23.258;2022-07-23T05:03:27;10.68;;;6.10;;
11346;SDS011;5728;42.722;23.258;2022-07-23T05:05:56;10.32;;;6.07;;
11346;SDS011;5728;42.722;23.258;2022-07-23T05:08:22;10.20;;;6.32;;
11346;SDS011;5728;42.722;23.258;2022-07-23T05:10:49;8.45;;;5.88;;
11346;SDS011;5728;42.722;23.258;2022-07-23T05:13:16;8.98;;;5.93;;
11346;SDS011;5728;42.722;23.258;2022-07-23T05:15:43;10.50;;;6.75;;
11346;SDS011;5728;42.722;23.258;2022-07-23T05:18:10;14.65;;;6.22;;
11346;SDS011;5728;42.722;23.258;2022-07-23T05:20:37;9.32;;;6.65;;
11346;SDS011;5728;42.722;23.258;2022-07-23T05:23:06;13.35;;;7.03;;
11346;SDS011;5728;42.722;23.258;2022-07-23T05:25:33;9.60;;;5.65;;
11346;SDS011;5728;42.722;23.258;2022-07-23T05:28:00;8.23;;;6.20;;
11346;SDS011;5728;42.722;23.258;2022-07-23T05:30:27;16.17;;;7.30;;
11346;SDS011;5728;42.722;23.258;2022-07-23T05:32:54;9.38;;;6.82;;
11346;SDS011;5728;42.722;23.258;2022-07-23T05:35:21;8.35;;;6.60;;
11346;SDS011;5728;42.722;23.258;2022-07-23T05:37:47;10.23;;;6.65;;
11346;SDS011;5728;42.722;23.258;2022-07-23T05:40:19;7.75;;;6.55;;
11346;SDS011;5728;42.722;23.258;2022-07-23T05:42:46;11.93;;;6.13;;
11346;SDS011;5728;42.722;23.258;2022-07-23T05:45:12;15.10;;;6.60;;
11346;SDS011;5728;42.722;23.258;2022-07-23T05:47:40;8.85;;;6.53;;
11346;SDS011;5728;42.722;23.258;2022-07-23T05:50:08;14.90;;;7.47;;
11346;SDS011;5728;42.722;23.258;2022-07-23T05:52:35;15.35;;;8.13;;
11346;SDS011;5728;42.722;23.258;2022-07-23T05:55:02;20.20;;;7.80;;
11346;SDS011;5728;42.722;23.258;2022-07-23T05:57:30;18.35;;;9.00;;
11346;SDS011;5728;42.722;23.258;2022-07-23T05:59:57;18.33;;;8.63;;
11346;SDS011;5728;42.722;23.258;2022-07-23T06:02:24;12.63;;;7.70;;
11346;SDS011;5728;42.722;23.258;2022-07-23T06:04:50;20.77;;;7.88;;
11346;SDS011;5728;42.722;23.258;2022-07-23T06:07:17;18.27;;;8.93;;
11346;SDS011;5728;42.722;23.258;2022-07-23T06:09:44;9.60;;;7.63;;
11346;SDS011;5728;42.722;23.258;2022-07-23T06:12:12;14.95;;;7.47;;
11346;SDS011;5728;42.722;23.258;2022-07-23T06:14:40;15.23;;;7.78;;
11346;SDS011;5728;42.722;23.258;2022-07-23T06:17:07;14.93;;;7.07;;
11346;SDS011;5728;42.722;23.258;2022-07-23T06:19:34;10.77;;;7.43;;
11346;SDS011;5728;42.722;23.258;2022-07-23T06:22:01;15.05;;;7.47;;
11346;SDS011;5728;42.722;23.258;2022-07-23T06:24:27;13.00;;;7.82;;
11346;SDS011;5728;42.722;23.258;2022-07-23T06:26:54;11.23;;;6.85;;
11346;SDS011;5728;42.722;23.258;2022-07-23T06:29:21;11.40;;;8.35;;
11346;SDS011;5728;42.722;23.258;2022-07-23T06:31:49;16.70;;;7.60;;
11346;SDS011;5728;42.722;23.258;2022-07-23T06:34:16;15.98;;;7.90;;
11346;SDS011;5728;42.722;23.258;2022-07-23T06:36:43;12.65;;;7.25;;
11346;SDS011;5728;42.722;23.258;2022-07-23T06:39:10;10.77;;;6.97;;
11346;SDS011;5728;42.722;23.258;2022-07-23T06:41:36;16.13;;;7.13;;
11346;SDS011;5728;42.722;23.258;2022-07-23T06:44:03;12.45;;;6.88;;
11346;SDS011;5728;42.722;23.258;2022-07-23T06:46:30;15.13;;;7.07;;
11346;SDS011;5728;42.722;23.258;2022-07-23T06:48:58;15.27;;;6.53;;
11346;SDS011;5728;42.722;23.258;2022-07-23T06:51:25;13.00;;;7.25;;
11346;SDS011;5728;42.722;23.258;2022-07-23T06:53:52;18.88;;;7.43;;
11346;SDS011;5728;42.722;23.258;2022-07-23T06:56:19;16.77;;;8.07;;
11346;SDS011;5728;42.722;23.258;2022-07-23T06:58:46;14.20;;;7.60;;
11346;SDS011;5728;42.722;23.258;2022-07-23T07:01:12;13.18;;;7.50;;
11346;SDS011;5728;42.722;23.258;2022-07-23T07:03:39;11.90;;;5.90;;
11346;SDS011;5728;42.722;23.258;2022-07-23T07:06:07;15.18;;;6.70;;
11346;SDS011;5728;42.722;23.258;2022-07-23T07:08:34;10.07;;;6.80;;
11346;SDS011;5728;42.722;23.258;2022-07-23T07:11:01;15.30;;;6.60;;
11346;SDS011;5728;42.722;23.258;2022-07-23T07:13:29;9.10;;;7.15;;
11346;SDS011;5728;42.722;23.258;2022-07-23T07:15:55;18.98;;;6.68;;
11346;SDS011;5728;42.722;23.258;2022-07-23T07:18:22;15.00;;;7.05;;
11346;SDS011;5728;42.722;23.258;2022-07-23T07:20:49;17.77;;;7.10;;
11346;SDS011;5728;42.722;23.258;2022-07-23T07:23:17;23.88;;;7.40;;
11346;SDS011;5728;42.722;23.258;2022-07-23T07:25:45;19.42;;;6.82;;
11346;SDS011;5728;42.722;23.258;2022-07-23T07:28:12;12.52;;;6.93;;
11346;SDS011;5728;42.722;23.258;2022-07-23T07:30:39;12.48;;;7.13;;
11346;SDS011;5728;42.722;23.258;2022-07-23T07:33:06;18.90;;;6.35;;
11346;SDS011;5728;42.722;23.258;2022-07-23T07:35:32;9.90;;;6.70;;
11346;SDS011;5728;42.722;23.258;2022-07-23T07:37:59;15.75;;;7.13;;
11346;SDS011;5728;42.722;23.258;2022-07-23T07:40:27;16.13;;;6.72;;
11346;SDS011;5728;42.722;23.258;2022-07-23T07:42:54;9.43;;;6.50;;
11346;SDS011;5728;42.722;23.258;2022-07-23T07:45:22;9.00;;;5.63;;
11346;SDS011;5728;42.722;23.258;2022-07-23T07:47:50;15.02;;;6.93;;
11346;SDS011;5728;42.722;23.258;2022-07-23T07:50:17;12.23;;;6.43;;
11346;SDS011;5728;42.722;23.258;2022-07-23T07:52:44;10.88;;;6.57;;
11346;SDS011;5728;42.722;23.258;2022-07-23T07:55:11;17.33;;;6.65;;
11346;SDS011;5728;42.722;23.258;2022-07-23T07:57:40;12.88;;;7.05;;
11346;SDS011;5728;42.722;23.258;2022-07-23T08:00:08;21.40;;;6.72;;
11346;SDS011;5728;42.722;23.258;2022-07-23T08:02:40;15.35;;;6.82;;
11346;SDS011;5728;42.722;23.258;2022-07-23T08:05:08;14.57;;;6.45;;
11346;SDS011;5728;42.722;23.258;2022-07-23T08:07:35;12.95;;;6.72;;
11346;SDS011;5728;42.722;23.258;2022-07-23T08:10:05;8.95;;;5.93;;
11346;SDS011;5728;42.722;23.258;2022-07-23T08:12:41;9.40;;;6.53;;
11346;SDS011;5728;42.722;23.258;2022-07-23T08:15:10;14.93;;;6.82;;
11346;SDS011;5728;42.722;23.258;2022-07-23T08:17:38;12.68;;;7.35;;
11346;SDS011;5728;42.722;23.258;2022-07-23T08:20:05;16.95;;;5.90;;
11346;SDS011;5728;42.722;23.258;2022-07-23T08:22:43;9.82;;;6.43;;
11346;SDS011;5728;42.722;23.258;2022-07-23T08:25:10;15.13;;;6.80;;
11346;SDS011;5728;42.722;23.258;2022-07-23T08:27:37;12.80;;;6.47;;
11346;SDS011;5728;42.722;23.258;2022-07-23T08:30:06;12.27;;;6.82;;
11346;SDS011;5728;42.722;23.258;2022-07-23T08:32:47;10.60;;;6.05;;
11346;SDS011;5728;42.722;23.258;2022-07-23T08:35:15;20.23;;;7.22;;
11346;SDS011;5728;42.722;23.258;2022-07-23T08:37:41;21.48;;;6.63;;
11346;SDS011;5728;42.722;23.258;2022-07-23T08:40:09;13.02;;;6.57;;
11346;SDS011;5728;42.722;23.258;2022-07-23T08:42:37;11.93;;;6.72;;
11346;SDS011;5728;42.722;23.258;2022-07-23T08:45:06;13.27;;;6.60;;
11346;SDS011;5728;42.722;23.258;2022-07-23T08:47:34;12.90;;;6.57;;
11346;SDS011;5728;42.722;23.258;2022-07-23T08:50:03;12.38;;;6.35;;
11346;SDS011;5728;42.722;23.258;2022-07-23T08:52:30;10.35;;;6.30;;
11346;SDS011;5728;42.722;23.258;2022-07-23T08:54:57;14.43;;;6.03;;
11346;SDS011;5728;42.722;23.258;2022-07-23T08:57:25;15.30;;;7.32;;
11346;SDS011;5728;42.722;23.258;2022-07-23T08:59:52;15.38;;;7.30;;
11346;SDS011;5728;42.722;23.258;2022-07-23T09:02:20;25.15;;;7.10;;
11346;SDS011;5728;42.722;23.258;2022-07-23T09:04:47;13.38;;;5.90;;
11346;SDS011;5728;42.722;23.258;2022-07-23T09:07:14;14.60;;;7.47;;
11346;SDS011;5728;42.722;23.258;2022-07-23T09:09:41;17.42;;;6.35;;
11346;SDS011;5728;42.722;23.258;2022-07-23T09:12:09;11.60;;;7.30;;
11346;SDS011;5728;42.722;23.258;2022-07-23T09:14:37;23.85;;;6.65;;
11346;SDS011;5728;42.722;23.258;2022-07-23T09:17:09;15.82;;;7.55;;
11346;SDS011;5728;42.722;23.258;2022-07-23T09:19:38;12.90;;;7.05;;
11346;SDS011;5728;42.722;23.258;2022-07-23T09:22:19;15.27;;;6.60;;
11346;SDS011;5728;42.722;23.258;2022-07-23T09:25:03;13.07;;;7.13;;
11346;SDS011;5728;42.722;23.258;2022-07-23T09:27:45;14.57;;;5.95;;
11346;SDS011;5728;42.722;23.258;2022-07-23T09:30:14;9.73;;;6.35;;
11346;SDS011;5728;42.722;23.258;2022-07-23T09:32:41;17.10;;;9.00;;
11346;SDS011;5728;42.722;23.258;2022-07-23T09:35:10;15.60;;;6.53;;
11346;SDS011;5728;42.722;23.258;2022-07-23T09:37:36;15.20;;;5.97;;
11346;SDS011;5728;42.722;23.258;2022-07-23T09:40:04;8.85;;;6.20;;
11346;SDS011;5728;42.722;23.258;2022-07-23T09:42:32;21.75;;;6.35;;
11346;SDS011;5728;42.722;23.258;2022-07-23T09:45:00;12.07;;;5.88;;
11346;SDS011;5728;42.722;23.258;2022-07-23T09:47:27;14.15;;;5.85;;
11346;SDS011;5728;42.722;23.258;2022-07-23T09:49:59;11.77;;;4.90;;
11346;SDS011;5728;42.722;23.258;2022-07-23T09:52:34;13.80;;;5.47;;
11346;SDS011;5728;42.722;23.258;2022-07-23T09:55:04;12.85;;;5.10;;
11346;SDS011;5728;42.722;23.258;2022-07-23T09:57:32;10.68;;;4.85;;
11346;SDS011;5728;42.722;23.258;2022-07-23T10:00:00;13.35;;;5.35;;
11346;SDS011;5728;42.722;23.258;2022-07-23T10:02:29;12.20;;;4.93;;
11346;SDS011;5728;42.722;23.258;2022-07-23T10:04:58;13.68;;;5.03;;
11346;SDS011;5728;42.722;23.258;2022-07-23T10:07:27;11.13;;;5.20;;
11346;SDS011;5728;42.722;23.258;2022-07-23T10:10:00;14.40;;;5.20;;
11346;SDS011;5728;42.722;23.258;2022-07-23T10:12:28;22.45;;;5.40;;
11346;SDS011;5728;42.722;23.258;2022-07-23T10:15:09;8.60;;;5.05;;
11346;SDS011;5728;42.722;23.258;2022-07-23T10:17:35;9.35;;;4.40;;
11346;SDS011;5728;42.722;23.258;2022-07-23T10:20:03;13.50;;;5.40;;
11346;SDS011;5728;42.722;23.258;2022-07-23T10:22:31;12.75;;;5.45;;
11346;SDS011;5728;42.722;23.258;2022-07-23T10:25:10;13.43;;;5.28;;
11346;SDS011;5728;42.722;23.258;2022-07-23T10:27:50;9.30;;;5.70;;
11346;SDS011;5728;42.722;23.258;2022-07-23T10:30:34;7.20;;;4.72;;
11346;SDS011;5728;42.722;23.258;2022-07-23T10:33:17;11.10;;;4.63;;
11346;SDS011;5728;42.722;23.258;2022-07-23T10:35:55;9.90;;;4.78;;
11346;SDS011;5728;42.722;23.258;2022-07-23T10:38:30;10.65;;;5.15;;
11346;SDS011;5728;42.722;23.258;2022-07-23T10:41:03;10.43;;;4.82;;
11346;SDS011;5728;42.722;23.258;2022-07-23T10:43:31;9.75;;;5.22;;
11346;SDS011;5728;42.722;23.258;2022-07-23T10:49:20;11.82;;;5.07;;
11346;SDS011;5728;42.722;23.258;2022-07-23T10:54:46;12.23;;;5.30;;
11346;SDS011;5728;42.722;23.258;2022-07-23T10:57:17;23.77;;;4.45;;
11346;SDS011;5728;42.722;23.258;2022-07-23T11:02:46;10.82;;;4.90;;
11346;SDS011;5728;42.722;23.258;2022-07-23T11:05:15;12.40;;;4.75;;
11346;SDS011;5728;42.722;23.258;2022-07-23T11:10:43;6.70;;;4.63;;
11346;SDS011;5728;42.722;23.258;2022-07-23T11:16:15;7.93;;;4.38;;
11346;SDS011;5728;42.722;23.258;2022-07-23T11:19:05;15.50;;;5.38;;
11346;SDS011;5728;42.722;23.258;2022-07-23T11:21:51;12.48;;;4.55;;
11346;SDS011;5728;42.722;23.258;2022-07-23T11:24:19;10.48;;;4.63;;
11346;SDS011;5728;42.722;23.258;2022-07-23T11:26:52;11.18;;;4.97;;
11346;SDS011;5728;42.722;23.258;2022-07-23T11:32:18;18.17;;;5.22;;
11346;SDS011;5728;42.722;23.258;2022-07-23T11:35:05;13.68;;;5.22;;
11346;SDS011;5728;42.722;23.258;2022-07-23T11:37:46;11.02;;;4.80;;
11346;SDS011;5728;42.722;23.258;2022-07-23T11:40:16;10.75;;;5.60;;
11346;SDS011;5728;42.722;23.258;2022-07-23T11:42:51;21.90;;;4.97;;
11346;SDS011;5728;42.722;23.258;2022-07-23T11:45:21;15.48;;;4.32;;
11346;SDS011;5728;42.722;23.258;2022-07-23T11:47:48;10.95;;;4.60;;
11346;SDS011;5728;42.722;23.258;2022-07-23T11:50:15;15.27;;;4.82;;
11346;SDS011;5728;42.722;23.258;2022-07-23T11:52:42;13.90;;;4.50;;
11346;SDS011;5728;42.722;23.258;2022-07-23T11:55:10;9.73;;;4.35;;
11346;SDS011;5728;42.722;23.258;2022-07-23T11:57:38;9.40;;;4.60;;
11346;SDS011;5728;42.722;23.258;2022-07-23T12:00:07;12.23;;;5.10;;
11346;SDS011;5728;42.722;23.258;2022-07-23T12:02:37;8.98;;;4.55;;
11346;SDS011;5728;42.722;23.258;2022-07-23T12:05:05;12.20;;;4.53;;
11346;SDS011;5728;42.722;23.258;2022-07-23T12:07:35;10.05;;;5.18;;
11346;SDS011;5728;42.722;23.258;2022-07-23T12:10:03;19.88;;;5.13;;
11346;SDS011;5728;42.722;23.258;2022-07-23T12:12:36;13.75;;;4.82;;
11346;SDS011;5728;42.722;23.258;2022-07-23T12:15:04;10.85;;;4.85;;
11346;SDS011;5728;42.722;23.258;2022-07-23T12:17:33;17.02;;;4.55;;
11346;SDS011;5728;42.722;23.258;2022-07-23T12:20:03;12.38;;;4.13;;
11346;SDS011;5728;42.722;23.258;2022-07-23T12:22:35;17.52;;;4.72;;
11346;SDS011;5728;42.722;23.258;2022-07-23T12:25:04;12.40;;;4.68;;
11346;SDS011;5728;42.722;23.258;2022-07-23T12:27:33;12.23;;;4.45;;
11346;SDS011;5728;42.722;23.258;2022-07-23T12:30:14;13.07;;;5.35;;
11346;SDS011;5728;42.722;23.258;2022-07-23T12:32:43;19.33;;;4.43;;
11346;SDS011;5728;42.722;23.258;2022-07-23T12:35:13;12.15;;;4.93;;
11346;SDS011;5728;42.722;23.258;2022-07-23T12:37:40;16.75;;;5.35;;
11346;SDS011;5728;42.722;23.258;2022-07-23T12:40:19;16.33;;;5.10;;
11346;SDS011;5728;42.722;23.258;2022-07-23T12:42:47;12.70;;;5.50;;
11346;SDS011;5728;42.722;23.258;2022-07-23T12:45:15;10.40;;;4.47;;
11346;SDS011;5728;42.722;23.258;2022-07-23T12:47:53;10.85;;;5.13;;
11346;SDS011;5728;42.722;23.258;2022-07-23T12:50:44;13.90;;;4.90;;
11346;SDS011;5728;42.722;23.258;2022-07-23T12:53:16;12.70;;;4.80;;
11346;SDS011;5728;42.722;23.258;2022-07-23T12:55:44;10.18;;;4.07;;
11346;SDS011;5728;42.722;23.258;2022-07-23T12:58:13;15.38;;;5.03;;
11346;SDS011;5728;42.722;23.258;2022-07-23T13:00:59;12.00;;;4.20;;
11346;SDS011;5728;42.722;23.258;2022-07-23T13:03:33;15.38;;;5.63;;
11346;SDS011;5728;42.722;23.258;2022-07-23T13:06:04;9.43;;;3.88;;
11346;SDS011;5728;42.722;23.258;2022-07-23T13:08:32;12.93;;;4.88;;
11346;SDS011;5728;42.722;23.258;2022-07-23T13:11:00;11.18;;;4.78;;
11346;SDS011;5728;42.722;23.258;2022-07-23T13:13:28;11.95;;;4.85;;
11346;SDS011;5728;42.722;23.258;2022-07-23T13:15:56;15.50;;;5.00;;
11346;SDS011;5728;42.722;23.258;2022-07-23T13:18:24;15.98;;;4.05;;
11346;SDS011;5728;42.722;23.258;2022-07-23T13:20:51;12.63;;;4.18;;
11346;SDS011;5728;42.722;23.258;2022-07-23T13:23:19;11.05;;;4.00;;
11346;SDS011;5728;42.722;23.258;2022-07-23T13:25:46;13.05;;;4.65;;
11346;SDS011;5728;42.722;23.258;2022-07-23T13:28:14;18.92;;;4.43;;
11346;SDS011;5728;42.722;23.258;2022-07-23T13:30:42;12.70;;;4.70;;
11346;SDS011;5728;42.722;23.258;2022-07-23T13:33:10;16.20;;;4.25;;
11346;SDS011;5728;42.722;23.258;2022-07-23T13:35:37;15.68;;;5.68;;
11346;SDS011;5728;42.722;23.258;2022-07-23T13:38:04;12.15;;;3.67;;
11346;SDS011;5728;42.722;23.258;2022-07-23T13:40:35;12.50;;;4.25;;
11346;SDS011;5728;42.722;23.258;2022-07-23T13:43:04;17.27;;;3.90;;
11346;SDS011;5728;42.722;23.258;2022-07-23T13:45:31;12.77;;;3.88;;
11346;SDS011;5728;42.722;23.258;2022-07-23T13:47:58;12.73;;;4.85;;
11346;SDS011;5728;42.722;23.258;2022-07-23T13:50:25;11.30;;;4.32;;
11346;SDS011;5728;42.722;23.258;2022-07-23T13:52:52;10.55;;;3.65;;
11346;SDS011;5728;42.722;23.258;2022-07-23T13:55:19;15.75;;;4.72;;
11346;SDS011;5728;42.722;23.258;2022-07-23T13:57:47;14.77;;;3.83;;
11346;SDS011;5728;42.722;23.258;2022-07-23T14:00:14;7.82;;;3.92;;
11346;SDS011;5728;42.722;23.258;2022-07-23T14:02:41;16.83;;;4.60;;
11346;SDS011;5728;42.722;23.258;2022-07-23T14:05:09;12.77;;;3.58;;
11346;SDS011;5728;42.722;23.258;2022-07-23T14:07:37;11.02;;;4.30;;
11346;SDS011;5728;42.722;23.258;2022-07-23T14:10:05;10.52;;;3.92;;
11346;SDS011;5728;42.722;23.258;2022-07-23T14:12:33;9.63;;;4.28;;
11346;SDS011;5728;42.722;23.258;2022-07-23T14:15:02;11.98;;;4.70;;
11346;SDS011;5728;42.722;23.258;2022-07-23T14:17:30;10.55;;;3.92;;
11346;SDS011;5728;42.722;23.258;2022-07-23T14:19:56;10.75;;;4.10;;
11346;SDS011;5728;42.722;23.258;2022-07-23T14:22:23;8.70;;;4.03;;
11346;SDS011;5728;42.722;23.258;2022-07-23T14:24:50;11.70;;;4.38;;
11346;SDS011;5728;42.722;23.258;2022-07-23T14:27:17;9.23;;;4.53;;
11346;SDS011;5728;42.722;23.258;2022-07-23T14:29:44;11.77;;;3.92;;
11346;SDS011;5728;42.722;23.258;2022-07-23T14:32:12;9.55;;;4.30;;
11346;SDS011;5728;42.722;23.258;2022-07-23T14:34:39;9.38;;;4.25;;
11346;SDS011;5728;42.722;23.258;2022-07-23T14:37:05;11.65;;;4.93;;
11346;SDS011;5728;42.722;23.258;2022-07-23T14:39:32;9.57;;;4.40;;
11346;SDS011;5728;42.722;23.258;2022-07-23T14:41:59;10.13;;;4.03;;
11346;SDS011;5728;42.722;23.258;2022-07-23T14:44:27;17.40;;;4.85;;
11346;SDS011;5728;42.722;23.258;2022-07-23T14:46:54;18.10;;;3.85;;
11346;SDS011;5728;42.722;23.258;2022-07-23T14:49:22;8.60;;;4.43;;
11346;SDS011;5728;42.722;23.258;2022-07-23T14:51:49;7.32;;;4.13;;
11346;SDS011;5728;42.722;23.258;2022-07-23T14:54:15;8.93;;;4.07;;
11346;SDS011;5728;42.722;23.258;2022-07-23T14:56:42;9.88;;;4.35;;
11346;SDS011;5728;42.722;23.258;2022-07-23T14:59:09;10.15;;;4.80;;
11346;SDS011;5728;42.722;23.258;2022-07-23T15:01:36;11.98;;;4.57;;
11346;SDS011;5728;42.722;23.258;2022-07-23T15:04:03;7.53;;;3.78;;